createdAt,value
2022-10-19T00:02:28.204Z,14.05
2022-10-19T00:05:29.819Z,14.00
2022-10-19T00:08:31.458Z,14.02
2022-10-19T00:11:34.398Z,14.01
2022-10-19T00:14:35.953Z,13.98
2022-10-19T00:17:37.634Z,13.95
2022-10-19T00:20:39.211Z,13.92
2022-10-19T00:23:41.216Z,13.91
2022-10-19T00:26:43.161Z,13.85
2022-10-19T00:29:44.719Z,13.72
2022-10-19T00:32:46.387Z,13.68
2022-10-19T00:35:52.580Z,13.91
2022-10-19T00:38:56.068Z,13.82
2022-10-19T00:41:57.785Z,13.87
2022-10-19T00:45:05.360Z,13.89
2022-10-19T00:48:08.514Z,14.02
2022-10-19T00:51:10.199Z,14.04
2022-10-19T00:54:12.277Z,14.10
2022-10-19T00:57:14.479Z,14.06
2022-10-19T01:00:16.180Z,14.02
2022-10-19T01:03:18.253Z,13.93
2022-10-19T01:06:20.619Z,13.86
2022-10-19T01:09:22.484Z,13.78
2022-10-19T01:12:45.263Z,13.73
2022-10-19T01:16:03.048Z,13.56
2022-10-19T01:19:19.657Z,13.61
2022-10-19T01:22:21.218Z,13.57
2022-10-19T01:25:31.754Z,13.47
2022-10-19T01:28:52.309Z,13.40
2022-10-19T01:32:02.686Z,13.35
2022-10-19T01:35:24.681Z,13.29
2022-10-19T01:38:39.090Z,13.23
2022-10-19T01:41:57.939Z,13.12
2022-10-19T01:45:07.108Z,13.07
2022-10-19T01:48:32.106Z,12.99
2022-10-19T01:51:38.665Z,12.85
2022-10-19T01:54:44.946Z,12.70
2022-10-19T01:57:48.136Z,12.62
2022-10-19T02:00:53.211Z,12.56
2022-10-19T02:03:56.055Z,12.65
2022-10-19T02:06:58.865Z,12.75
2022-10-19T02:10:01.138Z,12.72
2022-10-19T02:13:03.529Z,12.82
2022-10-19T02:16:13.636Z,12.62
2022-10-19T02:19:16.867Z,12.51
2022-10-19T02:22:18.492Z,12.51
2022-10-19T02:25:20.530Z,12.46
2022-10-19T02:31:26.370Z,12.45
2022-10-19T02:34:28.270Z,12.28
2022-10-19T02:37:29.997Z,12.22
2022-10-19T02:40:37.997Z,12.24
2022-10-19T02:43:42.803Z,12.26
2022-10-19T02:46:49.814Z,12.28
2022-10-19T02:49:52.189Z,12.19
2022-10-19T02:52:53.782Z,11.91
2022-10-19T02:55:55.432Z,11.86
2022-10-19T02:58:57.067Z,11.89
2022-10-19T03:01:58.728Z,11.99
2022-10-19T03:05:00.417Z,11.99
2022-10-19T03:08:02.041Z,11.74
2022-10-19T03:11:03.860Z,11.64
2022-10-19T03:14:05.458Z,11.56
2022-10-19T03:17:07.231Z,11.65
2022-10-19T03:20:10.222Z,11.61
2022-10-19T03:23:11.787Z,11.42
2022-10-19T03:26:15.641Z,11.26
2022-10-19T03:29:17.407Z,11.30
2022-10-19T03:32:19.072Z,11.25
2022-10-19T03:35:20.667Z,11.22
2022-10-19T03:38:22.238Z,11.31
2022-10-19T03:41:26.270Z,11.33
2022-10-19T03:44:27.841Z,11.40
2022-10-19T03:47:29.486Z,11.36
2022-10-19T03:50:31.166Z,11.34
2022-10-19T03:53:33.442Z,11.30
2022-10-19T03:56:36.363Z,11.39
2022-10-19T03:59:38.194Z,11.32
2022-10-19T04:02:39.792Z,11.37
2022-10-19T04:05:41.433Z,11.52
2022-10-19T04:08:43.722Z,11.53
2022-10-19T04:11:45.476Z,11.67
2022-10-19T04:14:57.017Z,11.64
2022-10-19T04:17:59.129Z,11.71
2022-10-19T04:21:03.267Z,11.83
2022-10-19T04:24:09.334Z,12.02
2022-10-19T04:27:10.967Z,12.01
2022-10-19T04:30:12.602Z,11.98
2022-10-19T04:33:14.249Z,11.96
2022-10-19T04:36:16.176Z,11.92
2022-10-19T04:39:20.233Z,11.85
2022-10-19T04:42:21.895Z,11.84
2022-10-19T04:45:23.599Z,11.90
2022-10-19T04:48:25.160Z,11.94
2022-10-19T04:51:27.750Z,11.95
2022-10-19T04:54:29.329Z,11.84
2022-10-19T04:57:31.278Z,11.68
2022-10-19T05:00:33.350Z,11.63
2022-10-19T05:03:34.994Z,11.61
2022-10-19T05:06:36.645Z,11.53
2022-10-19T05:09:40.483Z,11.52
2022-10-19T05:12:42.123Z,11.41
2022-10-19T05:15:43.837Z,11.48
2022-10-19T05:18:50.275Z,11.52
2022-10-19T05:21:51.776Z,11.53
2022-10-19T05:24:55.934Z,11.60
2022-10-19T05:27:59.739Z,11.63
2022-10-19T05:31:06.705Z,11.45
2022-10-19T05:37:16.473Z,11.39
2022-10-19T05:40:18.041Z,11.40
2022-10-19T05:43:19.572Z,11.39
2022-10-19T05:46:21.317Z,11.37
2022-10-19T05:49:23.283Z,11.41
2022-10-19T05:52:24.877Z,11.39
2022-10-19T05:55:26.482Z,11.32
2022-10-19T05:58:28.049Z,11.37
2022-10-19T06:01:30.969Z,11.47
2022-10-19T06:04:33.743Z,11.37
2022-10-19T06:07:35.741Z,11.42
2022-10-19T06:10:37.505Z,11.44
2022-10-19T06:13:40.847Z,11.54
2022-10-19T06:16:42.841Z,11.61
2022-10-19T06:19:44.400Z,11.66
2022-10-19T06:22:46.005Z,11.73
2022-10-19T06:25:47.646Z,11.75
2022-10-19T06:28:50.449Z,11.79
2022-10-19T06:31:54.137Z,11.81
2022-10-19T06:34:56.652Z,11.91
2022-10-19T06:37:58.378Z,11.96
2022-10-19T06:41:00.730Z,11.98
2022-10-19T06:44:02.462Z,12.02
2022-10-19T06:47:04.153Z,12.10
2022-10-19T06:50:07.002Z,12.12
2022-10-19T06:53:08.678Z,12.15
2022-10-19T06:56:10.691Z,12.24
2022-10-19T06:59:14.728Z,12.17
2022-10-19T07:02:16.839Z,12.22
2022-10-19T07:05:18.465Z,12.19
2022-10-19T07:08:20.106Z,12.17
2022-10-19T07:11:22.687Z,12.41
2022-10-19T07:14:24.834Z,12.46
2022-10-19T07:17:26.544Z,12.67
2022-10-19T07:20:28.128Z,12.87
2022-10-19T07:23:31.571Z,13.22
2022-10-19T07:26:33.806Z,13.34
2022-10-19T07:29:35.541Z,13.50
2022-10-19T07:32:37.160Z,13.68
2022-10-19T07:35:38.806Z,13.82
2022-10-19T07:38:41.042Z,13.99
2022-10-19T07:41:43.599Z,13.86
2022-10-19T07:44:45.430Z,13.79
2022-10-19T07:47:46.978Z,13.84
2022-10-19T07:50:49.019Z,13.82
2022-10-19T07:53:50.935Z,13.98
2022-10-19T07:56:52.506Z,14.11
2022-10-19T07:59:54.062Z,14.09
2022-10-19T08:03:28.075Z,14.10
2022-10-19T08:06:21.438Z,14.05
2022-10-19T08:09:47.365Z,14.09
2022-10-19T08:12:44.610Z,14.14
2022-10-19T08:15:46.355Z,14.22
2022-10-19T08:18:48.014Z,14.32
2022-10-19T08:21:49.905Z,14.13
2022-10-19T08:24:51.828Z,14.09
2022-10-19T08:27:53.389Z,14.08
2022-10-19T08:30:58.866Z,13.95
2022-10-19T08:34:00.491Z,14.21
2022-10-19T08:37:10.194Z,14.22
2022-10-19T08:40:25.378Z,14.46
2022-10-19T08:43:38.604Z,14.44
2022-10-19T08:47:13.872Z,14.35
2022-10-19T08:50:25.871Z,14.58
2022-10-19T08:53:38.826Z,14.73
2022-10-19T08:56:55.176Z,14.70
2022-10-19T09:00:15.713Z,14.83
2022-10-19T09:03:37.863Z,14.85
2022-10-19T09:07:10.265Z,14.71
2022-10-19T09:10:14.912Z,14.60
2022-10-19T09:13:41.286Z,14.62
2022-10-19T09:16:48.812Z,14.58
2022-10-19T09:19:50.650Z,14.69
2022-10-19T09:23:01.941Z,14.72
2022-10-19T09:26:05.830Z,15.10
2022-10-19T09:29:21.581Z,15.09
2022-10-19T09:32:28.497Z,14.94
2022-10-19T09:35:44.421Z,15.01
2022-10-19T09:38:46.105Z,15.07
2022-10-19T09:41:52.106Z,15.28
2022-10-19T09:44:55.075Z,15.35
2022-10-19T09:48:04.598Z,14.99
2022-10-19T09:51:14.645Z,15.15
2022-10-19T09:54:32.359Z,15.19
2022-10-19T09:57:45.927Z,15.16
2022-10-19T10:00:54.933Z,15.02
2022-10-19T10:04:08.758Z,15.02
2022-10-19T10:07:16.923Z,15.17
2022-10-19T10:10:18.581Z,15.29
2022-10-19T10:13:23.885Z,15.23
2022-10-19T10:16:30.498Z,14.98
2022-10-19T10:19:33.738Z,14.95
2022-10-19T10:22:37.157Z,14.98
2022-10-19T10:25:44.360Z,15.14
2022-10-19T10:28:51.416Z,15.23
2022-10-19T10:32:04.326Z,15.18
2022-10-19T10:35:31.690Z,15.52
2022-10-19T10:38:45.136Z,15.61
2022-10-19T10:41:49.003Z,15.65
2022-10-19T10:44:53.167Z,16.04
2022-10-19T10:47:55.179Z,16.44
2022-10-19T10:50:58.199Z,16.54
2022-10-19T10:54:32.824Z,16.83
2022-10-19T10:57:40.660Z,16.81
2022-10-19T11:00:43.456Z,16.90
2022-10-19T11:03:50.925Z,16.64
2022-10-19T11:06:59.225Z,16.72
2022-10-19T11:10:09.910Z,16.52
2022-10-19T11:13:37.948Z,16.93
2022-10-19T11:16:45.891Z,17.26
2022-10-19T11:19:50.254Z,17.78
2022-10-19T11:23:13.690Z,18.16
2022-10-19T11:26:27.452Z,18.23
2022-10-19T11:30:01.648Z,18.72
2022-10-19T11:33:20.430Z,18.78
2022-10-19T11:37:07.253Z,18.67
2022-10-19T11:41:19.031Z,18.68
2022-10-19T11:44:35.170Z,18.87
2022-10-19T11:47:59.737Z,18.73
2022-10-19T11:51:40.652Z,19.27
2022-10-19T11:55:04.228Z,19.78
2022-10-19T11:58:43.022Z,19.64
2022-10-19T12:02:03.257Z,19.75
2022-10-19T12:05:13.558Z,19.76
2022-10-19T12:08:52.527Z,19.79
2022-10-19T12:12:23.824Z,20.17
2022-10-19T12:15:33.593Z,20.35
2022-10-19T12:19:04.225Z,20.63
2022-10-19T12:22:12.617Z,20.09
2022-10-19T12:25:16.702Z,19.79
2022-10-19T12:28:24.690Z,20.26
2022-10-19T12:31:28.354Z,20.25
2022-10-19T12:34:40.672Z,20.10
2022-10-19T12:37:53.641Z,20.11
2022-10-19T12:41:06.156Z,19.77
2022-10-19T12:44:22.137Z,19.82
2022-10-19T12:47:25.071Z,19.94
2022-10-19T12:50:48.811Z,20.08
2022-10-19T12:53:50.594Z,20.55
2022-10-19T12:56:54.592Z,20.98
2022-10-19T13:00:20.717Z,21.72
2022-10-19T13:03:25.186Z,21.80
2022-10-19T13:06:35.584Z,21.49
2022-10-19T13:09:42.626Z,21.32
2022-10-19T13:12:47.102Z,21.98
2022-10-19T13:15:51.439Z,21.62
2022-10-19T13:19:14.133Z,21.48
2022-10-19T13:22:27.899Z,21.14
2022-10-19T13:25:34.097Z,21.04
2022-10-19T13:28:37.600Z,20.85
2022-10-19T13:31:39.654Z,20.79
2022-10-19T13:34:41.379Z,21.11
2022-10-19T13:37:43.712Z,21.28
2022-10-19T13:44:59.624Z,20.88
2022-10-19T13:48:18.795Z,21.02
2022-10-19T13:51:42.174Z,21.39
2022-10-19T13:55:17.838Z,21.32
2022-10-19T13:58:40.342Z,21.46
2022-10-19T14:01:59.792Z,21.06
2022-10-19T14:05:35.855Z,20.97
2022-10-19T14:08:55.954Z,21.50
2022-10-19T14:12:31.196Z,21.75
2022-10-19T14:15:34.909Z,21.94
2022-10-19T14:18:37.546Z,22.19
2022-10-19T14:21:39.211Z,22.22
2022-10-19T14:24:40.817Z,21.99
2022-10-19T14:27:43.001Z,22.05
2022-10-19T14:30:44.743Z,21.82
2022-10-19T14:33:50.138Z,21.84
2022-10-19T14:36:51.894Z,22.38
2022-10-19T14:40:04.235Z,22.40
2022-10-19T14:43:26.781Z,21.88
2022-10-19T14:46:33.839Z,21.91
2022-10-19T14:49:35.601Z,21.70
2022-10-19T14:52:39.709Z,21.60
2022-10-19T14:55:42.200Z,21.46
2022-10-19T14:59:29.148Z,21.40
2022-10-19T15:02:44.738Z,21.79
2022-10-19T15:05:49.250Z,21.22
2022-10-19T15:08:57.195Z,21.08
2022-10-19T15:12:10.535Z,20.77
2022-10-19T15:15:22.178Z,20.23
2022-10-19T15:18:47.540Z,20.21
2022-10-19T15:21:47.824Z,19.82
2022-10-19T15:25:07.825Z,19.74
2022-10-19T15:28:20.946Z,19.73
2022-10-19T15:31:28.535Z,19.75
2022-10-19T15:34:30.739Z,19.53
2022-10-19T15:37:32.400Z,19.47
2022-10-19T15:40:40.683Z,19.38
2022-10-19T15:43:58.868Z,19.46
2022-10-19T15:47:12.339Z,19.44
2022-10-19T15:50:32.195Z,19.35
2022-10-19T15:53:33.873Z,19.14
2022-10-19T15:56:39.024Z,18.89
2022-10-19T15:59:40.668Z,18.86
2022-10-19T16:02:42.442Z,18.81
2022-10-19T16:05:44.156Z,18.74
2022-10-19T16:08:46.582Z,18.61
2022-10-19T16:11:48.721Z,18.47
2022-10-19T16:14:50.679Z,18.24
2022-10-19T16:17:58.782Z,17.98
2022-10-19T16:21:00.844Z,17.75
2022-10-19T16:24:02.879Z,17.67
2022-10-19T16:27:04.957Z,17.57
2022-10-19T16:30:07.462Z,17.43
2022-10-19T16:33:09.065Z,17.27
2022-10-19T16:36:10.994Z,17.16
2022-10-19T16:39:12.621Z,17.03
2022-10-19T16:42:14.516Z,16.91
2022-10-19T16:45:16.982Z,16.72
2022-10-19T16:48:23.205Z,16.64
2022-10-19T16:51:30.142Z,16.67
2022-10-19T16:54:32.866Z,16.66
2022-10-19T16:57:34.537Z,16.60
2022-10-19T17:00:48.313Z,16.42
2022-10-19T17:03:55.024Z,16.27
2022-10-19T17:06:57.687Z,16.20
2022-10-19T17:09:59.430Z,16.12
2022-10-19T17:13:01.154Z,16.03
2022-10-19T17:16:04.032Z,15.96
2022-10-19T17:19:07.093Z,15.95
2022-10-19T17:22:08.708Z,15.91
2022-10-19T17:25:10.301Z,15.89
2022-10-19T17:28:11.908Z,15.80
2022-10-19T17:31:14.118Z,15.68
2022-10-19T17:34:16.124Z,15.61
2022-10-19T17:37:17.732Z,15.59
2022-10-19T17:40:19.336Z,15.63
2022-10-19T17:43:20.944Z,15.60
2022-10-19T17:46:28.943Z,15.51
2022-10-19T17:49:30.567Z,15.36
2022-10-19T17:52:32.187Z,15.26
2022-10-19T17:55:36.807Z,15.27
2022-10-19T17:58:39.921Z,15.24
2022-10-19T18:01:42.201Z,15.19
2022-10-19T18:04:43.766Z,14.98
2022-10-19T18:07:45.606Z,14.83
2022-10-19T18:10:47.200Z,14.90
2022-10-19T18:13:49.643Z,14.88
2022-10-19T18:16:52.081Z,14.69
2022-10-19T18:19:53.813Z,14.63
2022-10-19T18:22:55.436Z,14.65
2022-10-19T18:26:04.886Z,14.57
2022-10-19T18:29:16.743Z,14.59
2022-10-19T18:32:18.330Z,14.58
2022-10-19T18:35:19.950Z,14.64
2022-10-19T18:38:23.671Z,14.69
2022-10-19T18:41:26.374Z,14.62
2022-10-19T18:44:29.558Z,14.47
2022-10-19T18:47:34.136Z,14.50
2022-10-19T18:50:35.721Z,14.29
2022-10-19T18:53:37.554Z,14.38
2022-10-19T18:56:39.178Z,14.28
2022-10-19T18:59:40.789Z,14.16
2022-10-19T19:02:47.059Z,14.30
2022-10-19T19:05:49.080Z,14.22
2022-10-19T19:08:51.468Z,14.10
2022-10-19T19:11:54.423Z,14.18
2022-10-19T19:14:56.026Z,14.07
2022-10-19T19:17:57.632Z,13.85
2022-10-19T19:20:59.313Z,13.90
2022-10-19T19:24:02.729Z,13.94
2022-10-19T19:27:04.348Z,13.89
2022-10-19T19:30:06.548Z,13.90
2022-10-19T19:33:08.277Z,13.90
2022-10-19T19:36:11.692Z,13.79
2022-10-19T19:39:19.426Z,13.72
2022-10-19T19:42:23.310Z,13.72
2022-10-19T19:45:28.617Z,13.55
2022-10-19T19:48:30.463Z,13.52
2022-10-19T19:51:32.629Z,13.59
2022-10-19T19:54:34.252Z,13.77
2022-10-19T19:57:36.101Z,13.60
2022-10-19T20:00:39.503Z,13.42
2022-10-19T20:03:42.147Z,13.40
2022-10-19T20:06:44.619Z,13.34
2022-10-19T20:09:46.330Z,13.39
2022-10-19T20:12:48.466Z,13.51
2022-10-19T20:15:50.176Z,13.57
2022-10-19T20:18:55.588Z,13.34
2022-10-19T20:21:58.229Z,13.37
2022-10-19T20:24:59.821Z,13.26
2022-10-19T20:28:01.472Z,13.22
2022-10-19T20:31:06.130Z,13.21
2022-10-19T20:34:14.071Z,13.12
2022-10-19T20:37:15.947Z,13.13
2022-10-19T20:40:17.956Z,13.10
2022-10-19T20:43:19.573Z,13.07
2022-10-19T20:46:27.786Z,13.04
2022-10-19T20:49:29.375Z,13.03
2022-10-19T20:52:30.959Z,13.03
2022-10-19T20:55:33.359Z,13.05
2022-10-19T20:58:35.490Z,12.99
2022-10-19T21:01:38.665Z,12.92
2022-10-19T21:04:40.298Z,12.92
2022-10-19T21:07:41.898Z,12.80
2022-10-19T21:10:43.541Z,12.83
2022-10-19T21:13:46.057Z,12.88
2022-10-19T21:16:47.863Z,12.90
2022-10-19T21:19:49.603Z,12.82
2022-10-19T21:22:51.240Z,12.81
2022-10-19T21:25:54.603Z,12.78
2022-10-19T21:28:56.575Z,12.80
2022-10-19T21:31:58.245Z,12.77
2022-10-19T21:34:59.893Z,12.76
2022-10-19T21:38:01.506Z,12.75
2022-10-19T21:41:08.799Z,12.64
2022-10-19T21:44:10.790Z,12.65
2022-10-19T21:47:12.353Z,12.62
2022-10-19T21:50:14.039Z,12.53
2022-10-19T21:53:19.976Z,12.57
2022-10-19T21:56:21.747Z,12.59
2022-10-19T21:59:23.739Z,12.70
2022-10-19T22:02:25.321Z,12.67
2022-10-19T22:05:26.932Z,12.71
2022-10-19T22:08:30.161Z,12.52
2022-10-19T22:11:31.955Z,12.75
2022-10-19T22:14:33.581Z,12.78
2022-10-19T22:17:35.240Z,12.95
2022-10-19T22:20:38.720Z,12.77
2022-10-19T22:23:41.065Z,12.83
2022-10-19T22:26:47.371Z,12.92
2022-10-19T22:29:50.757Z,12.93
2022-10-19T22:32:52.442Z,12.81
2022-10-19T22:35:59.392Z,12.80
2022-10-19T22:39:01.188Z,12.80
2022-10-19T22:42:05.456Z,12.78
2022-10-19T22:45:07.672Z,12.73
2022-10-19T22:48:09.321Z,12.78
2022-10-19T22:51:10.888Z,12.56
2022-10-19T22:54:12.922Z,12.57
2022-10-19T22:57:14.535Z,12.40
2022-10-19T23:00:16.218Z,12.42
2022-10-19T23:03:17.756Z,12.45
2022-10-19T23:06:19.332Z,12.35
2022-10-19T23:09:20.994Z,12.31
2022-10-19T23:12:22.633Z,12.26
2022-10-19T23:15:24.210Z,12.26
2022-10-19T23:18:25.881Z,12.29
2022-10-19T23:21:27.524Z,12.22
2022-10-19T23:24:29.124Z,11.94
2022-10-19T23:27:30.774Z,11.95
2022-10-19T23:30:32.350Z,12.06
2022-10-19T23:33:34.171Z,12.01
2022-10-19T23:36:35.801Z,11.92
2022-10-19T23:39:37.409Z,11.89
2022-10-19T23:42:39.036Z,11.82
2022-10-19T23:45:40.648Z,11.92
2022-10-19T23:48:42.366Z,12.13
2022-10-19T23:51:44.045Z,12.31
2022-10-19T23:54:45.636Z,12.20
2022-10-19T23:57:47.229Z,12.12
